sensor_id;sensor_type;location;lat;lon;timestamp;temperature;humidity
6333;DHT22;3199;49.102;8.856;2023-08-06T00:01:50;16.30;99.90
6333;DHT22;3199;49.102;8.856;2023-08-06T00:04:16;16.30;99.90
6333;DHT22;3199;49.102;8.856;2023-08-06T00:06:41;16.30;99.90
6333;DHT22;3199;49.102;8.856;2023-08-06T00:09:07;16.20;99.90
6333;DHT22;3199;49.102;8.856;2023-08-06T00:11:33;16.20;99.90
6333;DHT22;3199;49.102;8.856;2023-08-06T00:13:58;16.20;99.90
6333;DHT22;3199;49.102;8.856;2023-08-06T00:16:24;16.10;99.90
6333;DHT22;3199;49.102;8.856;2023-08-06T00:18:49;16.10;99.90
6333;DHT22;3199;49.102;8.856;2023-08-06T00:21:15;16.10;99.90
6333;DHT22;3199;49.102;8.856;2023-08-06T00:23:42;16.10;99.90
6333;DHT22;3199;49.102;8.856;2023-08-06T00:26:07;16.10;99.90
6333;DHT22;3199;49.102;8.856;2023-08-06T00:28:33;16.00;99.90
6333;DHT22;3199;49.102;8.856;2023-08-06T00:30:58;16.00;99.90
6333;DHT22;3199;49.102;8.856;2023-08-06T00:33:24;16.00;99.90
6333;DHT22;3199;49.102;8.856;2023-08-06T00:35:50;16.00;99.90
6333;DHT22;3199;49.102;8.856;2023-08-06T00:38:16;16.00;99.90
6333;DHT22;3199;49.102;8.856;2023-08-06T00:40:41;15.90;99.90
6333;DHT22;3199;49.102;8.856;2023-08-06T00:43:07;15.80;99.90
6333;DHT22;3199;49.102;8.856;2023-08-06T00:45:35;15.80;99.90
6333;DHT22;3199;49.102;8.856;2023-08-06T00:48:02;15.80;99.90
6333;DHT22;3199;49.102;8.856;2023-08-06T00:50:29;15.80;99.90
6333;DHT22;3199;49.102;8.856;2023-08-06T00:52:55;15.70;99.90
6333;DHT22;3199;49.102;8.856;2023-08-06T00:55:20;15.80;99.90
6333;DHT22;3199;49.102;8.856;2023-08-06T00:57:46;15.80;99.90
6333;DHT22;3199;49.102;8.856;2023-08-06T01:00:12;15.90;99.90
6333;DHT22;3199;49.102;8.856;2023-08-06T01:02:38;15.90;99.90
6333;DHT22;3199;49.102;8.856;2023-08-06T01:05:03;15.90;99.90
6333;DHT22;3199;49.102;8.856;2023-08-06T01:13:18;15.90;99.90
6333;DHT22;3199;49.102;8.856;2023-08-06T01:15:46;15.90;99.90
6333;DHT22;3199;49.102;8.856;2023-08-06T01:18:13;15.90;99.90
6333;DHT22;3199;49.102;8.856;2023-08-06T01:20:38;15.90;99.90
6333;DHT22;3199;49.102;8.856;2023-08-06T01:23:04;15.90;99.90
6333;DHT22;3199;49.102;8.856;2023-08-06T01:25:35;15.90;99.90
6333;DHT22;3199;49.102;8.856;2023-08-06T01:28:18;15.90;99.90
6333;DHT22;3199;49.102;8.856;2023-08-06T01:30:48;15.90;99.90
6333;DHT22;3199;49.102;8.856;2023-08-06T01:33:19;15.80;99.90
6333;DHT22;3199;49.102;8.856;2023-08-06T01:35:47;15.80;99.90
6333;DHT22;3199;49.102;8.856;2023-08-06T01:38:13;15.80;99.90
6333;DHT22;3199;49.102;8.856;2023-08-06T01:40:39;15.80;99.90
6333;DHT22;3199;49.102;8.856;2023-08-06T01:43:04;15.80;99.90
6333;DHT22;3199;49.102;8.856;2023-08-06T01:45:30;15.70;99.90
6333;DHT22;3199;49.102;8.856;2023-08-06T01:47:56;15.70;99.90
6333;DHT22;3199;49.102;8.856;2023-08-06T01:50:21;15.70;99.90
6333;DHT22;3199;49.102;8.856;2023-08-06T01:52:47;15.70;99.90
6333;DHT22;3199;49.102;8.856;2023-08-06T01:55:12;15.70;99.90
6333;DHT22;3199;49.102;8.856;2023-08-06T01:57:38;15.70;99.90
6333;DHT22;3199;49.102;8.856;2023-08-06T02:00:03;15.60;99.90
6333;DHT22;3199;49.102;8.856;2023-08-06T02:02:29;15.60;99.90
6333;DHT22;3199;49.102;8.856;2023-08-06T02:04:55;15.50;99.90
6333;DHT22;3199;49.102;8.856;2023-08-06T02:07:20;15.50;99.90
6333;DHT22;3199;49.102;8.856;2023-08-06T02:09:46;15.60;99.90
6333;DHT22;3199;49.102;8.856;2023-08-06T02:12:11;15.50;99.90
6333;DHT22;3199;49.102;8.856;2023-08-06T02:14:37;15.50;99.90
6333;DHT22;3199;49.102;8.856;2023-08-06T02:17:02;15.50;99.90
6333;DHT22;3199;49.102;8.856;2023-08-06T02:19:28;15.50;99.90
6333;DHT22;3199;49.102;8.856;2023-08-06T02:21:53;15.50;99.90
6333;DHT22;3199;49.102;8.856;2023-08-06T02:24:19;15.50;99.90
6333;DHT22;3199;49.102;8.856;2023-08-06T02:26:44;15.50;99.90
6333;DHT22;3199;49.102;8.856;2023-08-06T02:29:10;15.50;99.90
6333;DHT22;3199;49.102;8.856;2023-08-06T02:31:36;15.50;99.90
6333;DHT22;3199;49.102;8.856;2023-08-06T02:34:01;15.40;99.90
6333;DHT22;3199;49.102;8.856;2023-08-06T02:36:27;15.40;99.90
6333;DHT22;3199;49.102;8.856;2023-08-06T02:38:55;15.40;99.90
6333;DHT22;3199;49.102;8.856;2023-08-06T02:41:20;15.40;99.90
6333;DHT22;3199;49.102;8.856;2023-08-06T02:43:46;15.40;99.90
6333;DHT22;3199;49.102;8.856;2023-08-06T02:46:11;15.40;99.90
6333;DHT22;3199;49.102;8.856;2023-08-06T02:48:37;15.40;99.90
6333;DHT22;3199;49.102;8.856;2023-08-06T02:51:02;15.40;99.90
6333;DHT22;3199;49.102;8.856;2023-08-06T02:53:28;15.50;99.90
6333;DHT22;3199;49.102;8.856;2023-08-06T02:55:53;15.50;99.90
6333;DHT22;3199;49.102;8.856;2023-08-06T02:58:20;15.50;99.90
6333;DHT22;3199;49.102;8.856;2023-08-06T03:01:06;15.40;99.90
6333;DHT22;3199;49.102;8.856;2023-08-06T03:03:33;15.40;99.90
6333;DHT22;3199;49.102;8.856;2023-08-06T03:05:58;15.40;99.90
6333;DHT22;3199;49.102;8.856;2023-08-06T03:08:24;15.40;99.90
6333;DHT22;3199;49.102;8.856;2023-08-06T03:10:50;15.40;99.90
6333;DHT22;3199;49.102;8.856;2023-08-06T03:13:16;15.30;99.90
6333;DHT22;3199;49.102;8.856;2023-08-06T03:15:42;15.30;99.90
6333;DHT22;3199;49.102;8.856;2023-08-06T03:18:08;15.30;99.90
6333;DHT22;3199;49.102;8.856;2023-08-06T03:20:33;15.20;99.90
6333;DHT22;3199;49.102;8.856;2023-08-06T03:22:59;15.20;99.90
6333;DHT22;3199;49.102;8.856;2023-08-06T03:25:25;15.20;99.90
6333;DHT22;3199;49.102;8.856;2023-08-06T03:27:50;15.20;99.90
6333;DHT22;3199;49.102;8.856;2023-08-06T03:30:16;15.20;99.90
6333;DHT22;3199;49.102;8.856;2023-08-06T03:32:41;15.20;99.90
6333;DHT22;3199;49.102;8.856;2023-08-06T03:35:07;15.20;99.90
6333;DHT22;3199;49.102;8.856;2023-08-06T03:37:33;15.20;99.90
6333;DHT22;3199;49.102;8.856;2023-08-06T03:39:58;15.20;99.90
6333;DHT22;3199;49.102;8.856;2023-08-06T03:42:24;15.20;99.90
6333;DHT22;3199;49.102;8.856;2023-08-06T03:44:49;15.20;99.90
6333;DHT22;3199;49.102;8.856;2023-08-06T03:47:15;15.10;99.90
6333;DHT22;3199;49.102;8.856;2023-08-06T03:49:40;15.10;99.90
6333;DHT22;3199;49.102;8.856;2023-08-06T03:52:06;15.00;99.90
6333;DHT22;3199;49.102;8.856;2023-08-06T03:54:32;15.00;99.90
6333;DHT22;3199;49.102;8.856;2023-08-06T03:56:57;14.90;99.90
6333;DHT22;3199;49.102;8.856;2023-08-06T03:59:23;15.00;99.90
6333;DHT22;3199;49.102;8.856;2023-08-06T04:01:48;14.90;99.90
6333;DHT22;3199;49.102;8.856;2023-08-06T04:04:14;14.90;99.90
6333;DHT22;3199;49.102;8.856;2023-08-06T04:06:39;14.90;99.90
6333;DHT22;3199;49.102;8.856;2023-08-06T04:09:05;14.90;99.90
6333;DHT22;3199;49.102;8.856;2023-08-06T04:11:30;14.80;99.90
6333;DHT22;3199;49.102;8.856;2023-08-06T04:13:56;14.90;99.90
6333;DHT22;3199;49.102;8.856;2023-08-06T04:16:21;14.80;99.90
6333;DHT22;3199;49.102;8.856;2023-08-06T04:18:47;14.80;99.90
6333;DHT22;3199;49.102;8.856;2023-08-06T04:21:12;14.80;99.90
6333;DHT22;3199;49.102;8.856;2023-08-06T04:23:38;14.80;99.90
6333;DHT22;3199;49.102;8.856;2023-08-06T04:26:04;14.70;99.90
6333;DHT22;3199;49.102;8.856;2023-08-06T04:28:30;14.70;99.90
6333;DHT22;3199;49.102;8.856;2023-08-06T04:30:55;14.70;99.90
6333;DHT22;3199;49.102;8.856;2023-08-06T04:33:21;14.60;99.90
6333;DHT22;3199;49.102;8.856;2023-08-06T04:35:46;14.60;99.90
6333;DHT22;3199;49.102;8.856;2023-08-06T04:38:12;14.60;99.90
6333;DHT22;3199;49.102;8.856;2023-08-06T04:40:37;14.50;99.90
6333;DHT22;3199;49.102;8.856;2023-08-06T04:43:03;14.50;99.90
6333;DHT22;3199;49.102;8.856;2023-08-06T04:45:29;14.50;99.90
6333;DHT22;3199;49.102;8.856;2023-08-06T04:47:54;14.40;99.90
6333;DHT22;3199;49.102;8.856;2023-08-06T04:50:20;14.40;99.90
6333;DHT22;3199;49.102;8.856;2023-08-06T04:52:45;14.30;99.90
6333;DHT22;3199;49.102;8.856;2023-08-06T04:55:11;14.30;99.90
6333;DHT22;3199;49.102;8.856;2023-08-06T04:57:36;14.30;99.90
6333;DHT22;3199;49.102;8.856;2023-08-06T05:00:02;14.30;99.90
6333;DHT22;3199;49.102;8.856;2023-08-06T05:02:28;14.30;99.90
6333;DHT22;3199;49.102;8.856;2023-08-06T05:04:53;14.30;99.90
6333;DHT22;3199;49.102;8.856;2023-08-06T05:07:19;14.30;99.90
6333;DHT22;3199;49.102;8.856;2023-08-06T05:09:45;14.30;99.90
6333;DHT22;3199;49.102;8.856;2023-08-06T05:12:10;14.30;99.90
6333;DHT22;3199;49.102;8.856;2023-08-06T05:14:36;14.30;99.90
6333;DHT22;3199;49.102;8.856;2023-08-06T05:17:02;14.20;99.90
6333;DHT22;3199;49.102;8.856;2023-08-06T05:19:29;14.30;99.90
6333;DHT22;3199;49.102;8.856;2023-08-06T05:21:55;14.30;99.90
6333;DHT22;3199;49.102;8.856;2023-08-06T05:24:20;14.30;99.90
6333;DHT22;3199;49.102;8.856;2023-08-06T05:26:46;14.30;99.90
6333;DHT22;3199;49.102;8.856;2023-08-06T05:29:13;14.30;99.90
6333;DHT22;3199;49.102;8.856;2023-08-06T05:31:38;14.40;99.90
6333;DHT22;3199;49.102;8.856;2023-08-06T05:34:04;14.30;99.90
6333;DHT22;3199;49.102;8.856;2023-08-06T05:36:29;14.40;99.90
6333;DHT22;3199;49.102;8.856;2023-08-06T05:38:55;14.40;99.90
6333;DHT22;3199;49.102;8.856;2023-08-06T05:41:20;14.50;99.90
6333;DHT22;3199;49.102;8.856;2023-08-06T05:43:46;14.50;99.90
6333;DHT22;3199;49.102;8.856;2023-08-06T05:46:11;14.50;99.90
6333;DHT22;3199;49.102;8.856;2023-08-06T05:48:37;14.60;99.90
6333;DHT22;3199;49.102;8.856;2023-08-06T05:51:02;14.60;99.90
6333;DHT22;3199;49.102;8.856;2023-08-06T05:53:28;14.60;99.90
6333;DHT22;3199;49.102;8.856;2023-08-06T05:55:53;14.60;99.90
6333;DHT22;3199;49.102;8.856;2023-08-06T05:58:19;14.70;99.90
6333;DHT22;3199;49.102;8.856;2023-08-06T06:00:49;14.80;99.90
6333;DHT22;3199;49.102;8.856;2023-08-06T06:03:15;14.90;99.90
6333;DHT22;3199;49.102;8.856;2023-08-06T06:05:40;14.90;99.90
6333;DHT22;3199;49.102;8.856;2023-08-06T06:08:06;14.90;99.90
6333;DHT22;3199;49.102;8.856;2023-08-06T06:10:31;14.90;99.90
6333;DHT22;3199;49.102;8.856;2023-08-06T06:12:57;14.90;99.90
6333;DHT22;3199;49.102;8.856;2023-08-06T06:15:22;14.90;99.90
6333;DHT22;3199;49.102;8.856;2023-08-06T06:17:48;14.90;99.90
6333;DHT22;3199;49.102;8.856;2023-08-06T06:20:13;14.90;99.90
6333;DHT22;3199;49.102;8.856;2023-08-06T06:22:39;14.80;99.90
6333;DHT22;3199;49.102;8.856;2023-08-06T06:25:05;14.70;99.90
6333;DHT22;3199;49.102;8.856;2023-08-06T06:27:30;14.70;99.90
6333;DHT22;3199;49.102;8.856;2023-08-06T06:29:56;14.60;99.90
6333;DHT22;3199;49.102;8.856;2023-08-06T06:32:22;14.60;99.90
6333;DHT22;3199;49.102;8.856;2023-08-06T06:34:47;14.60;99.90
6333;DHT22;3199;49.102;8.856;2023-08-06T06:37:13;14.50;99.90
6333;DHT22;3199;49.102;8.856;2023-08-06T06:39:38;14.60;99.90
6333;DHT22;3199;49.102;8.856;2023-08-06T06:42:04;14.60;99.90
6333;DHT22;3199;49.102;8.856;2023-08-06T06:44:30;14.70;99.90
6333;DHT22;3199;49.102;8.856;2023-08-06T06:46:55;14.70;99.90
6333;DHT22;3199;49.102;8.856;2023-08-06T06:49:21;14.70;99.90
6333;DHT22;3199;49.102;8.856;2023-08-06T06:51:47;14.70;99.90
6333;DHT22;3199;49.102;8.856;2023-08-06T06:54:12;14.70;99.90
6333;DHT22;3199;49.102;8.856;2023-08-06T06:56:38;14.70;99.90
6333;DHT22;3199;49.102;8.856;2023-08-06T06:59:03;14.60;99.90
6333;DHT22;3199;49.102;8.856;2023-08-06T07:01:29;14.90;99.90
6333;DHT22;3199;49.102;8.856;2023-08-06T07:03:54;15.40;99.90
6333;DHT22;3199;49.102;8.856;2023-08-06T07:06:20;15.70;99.90
6333;DHT22;3199;49.102;8.856;2023-08-06T07:08:45;16.20;99.90
6333;DHT22;3199;49.102;8.856;2023-08-06T07:11:11;16.70;99.90
6333;DHT22;3199;49.102;8.856;2023-08-06T07:13:36;16.80;99.90
6333;DHT22;3199;49.102;8.856;2023-08-06T07:16:02;16.70;99.90
6333;DHT22;3199;49.102;8.856;2023-08-06T07:18:28;16.80;99.90
6333;DHT22;3199;49.102;8.856;2023-08-06T07:20:55;16.80;99.90
6333;DHT22;3199;49.102;8.856;2023-08-06T07:23:21;16.60;99.90
6333;DHT22;3199;49.102;8.856;2023-08-06T07:25:48;16.50;99.90
6333;DHT22;3199;49.102;8.856;2023-08-06T07:28:14;16.60;99.90
6333;DHT22;3199;49.102;8.856;2023-08-06T07:30:41;16.40;99.90
6333;DHT22;3199;49.102;8.856;2023-08-06T07:33:06;16.30;99.90
6333;DHT22;3199;49.102;8.856;2023-08-06T07:35:33;16.40;99.90
6333;DHT22;3199;49.102;8.856;2023-08-06T07:37:59;16.70;99.90
6333;DHT22;3199;49.102;8.856;2023-08-06T07:40:24;16.90;99.90
6333;DHT22;3199;49.102;8.856;2023-08-06T07:42:50;17.00;99.90
6333;DHT22;3199;49.102;8.856;2023-08-06T07:45:16;17.10;99.90
6333;DHT22;3199;49.102;8.856;2023-08-06T07:47:41;17.00;99.90
6333;DHT22;3199;49.102;8.856;2023-08-06T07:50:08;17.00;99.90
6333;DHT22;3199;49.102;8.856;2023-08-06T07:52:34;16.70;99.90
6333;DHT22;3199;49.102;8.856;2023-08-06T07:55:00;16.50;99.90
6333;DHT22;3199;49.102;8.856;2023-08-06T07:57:27;16.50;99.90
6333;DHT22;3199;49.102;8.856;2023-08-06T07:59:52;16.50;99.90
6333;DHT22;3199;49.102;8.856;2023-08-06T08:02:19;16.50;99.90
6333;DHT22;3199;49.102;8.856;2023-08-06T08:04:44;16.50;99.90
6333;DHT22;3199;49.102;8.856;2023-08-06T08:07:12;16.60;99.90
6333;DHT22;3199;49.102;8.856;2023-08-06T08:09:38;16.50;99.90
6333;DHT22;3199;49.102;8.856;2023-08-06T08:12:04;16.60;99.90
6333;DHT22;3199;49.102;8.856;2023-08-06T08:14:29;16.50;99.90
6333;DHT22;3199;49.102;8.856;2023-08-06T08:17:01;16.40;99.90
6333;DHT22;3199;49.102;8.856;2023-08-06T08:19:27;16.60;99.90
6333;DHT22;3199;49.102;8.856;2023-08-06T08:21:53;16.70;99.90
6333;DHT22;3199;49.102;8.856;2023-08-06T08:24:20;17.10;99.90
6333;DHT22;3199;49.102;8.856;2023-08-06T08:26:45;17.20;99.90
6333;DHT22;3199;49.102;8.856;2023-08-06T08:29:11;17.10;99.90
6333;DHT22;3199;49.102;8.856;2023-08-06T08:31:36;16.90;99.90
6333;DHT22;3199;49.102;8.856;2023-08-06T08:34:05;16.90;99.90
6333;DHT22;3199;49.102;8.856;2023-08-06T08:36:31;16.80;99.90
6333;DHT22;3199;49.102;8.856;2023-08-06T08:38:56;16.70;99.90
6333;DHT22;3199;49.102;8.856;2023-08-06T08:41:22;16.80;99.90
6333;DHT22;3199;49.102;8.856;2023-08-06T08:43:50;17.10;99.90
6333;DHT22;3199;49.102;8.856;2023-08-06T08:46:18;17.10;99.90
6333;DHT22;3199;49.102;8.856;2023-08-06T08:48:44;17.00;99.90
6333;DHT22;3199;49.102;8.856;2023-08-06T08:51:10;17.30;99.90
6333;DHT22;3199;49.102;8.856;2023-08-06T08:53:37;17.10;99.90
6333;DHT22;3199;49.102;8.856;2023-08-06T08:56:05;17.00;99.90
6333;DHT22;3199;49.102;8.856;2023-08-06T08:58:31;17.10;99.90
6333;DHT22;3199;49.102;8.856;2023-08-06T09:00:56;17.10;99.90
6333;DHT22;3199;49.102;8.856;2023-08-06T09:03:22;17.10;99.90
6333;DHT22;3199;49.102;8.856;2023-08-06T09:05:52;17.10;99.90
6333;DHT22;3199;49.102;8.856;2023-08-06T09:08:22;17.10;99.90
6333;DHT22;3199;49.102;8.856;2023-08-06T09:10:49;17.20;99.90
6333;DHT22;3199;49.102;8.856;2023-08-06T09:13:15;17.20;99.90
6333;DHT22;3199;49.102;8.856;2023-08-06T09:15:41;16.90;99.90
6333;DHT22;3199;49.102;8.856;2023-08-06T09:18:10;16.70;99.90
6333;DHT22;3199;49.102;8.856;2023-08-06T09:20:40;16.40;99.90
6333;DHT22;3199;49.102;8.856;2023-08-06T09:23:09;16.20;99.90
6333;DHT22;3199;49.102;8.856;2023-08-06T09:25:38;16.30;99.90
6333;DHT22;3199;49.102;8.856;2023-08-06T09:28:04;16.40;99.90
6333;DHT22;3199;49.102;8.856;2023-08-06T09:30:31;16.50;99.90
6333;DHT22;3199;49.102;8.856;2023-08-06T09:32:57;16.50;99.90
6333;DHT22;3199;49.102;8.856;2023-08-06T09:35:23;16.40;99.90
6333;DHT22;3199;49.102;8.856;2023-08-06T09:37:48;16.50;99.90
6333;DHT22;3199;49.102;8.856;2023-08-06T09:40:30;16.50;99.90
6333;DHT22;3199;49.102;8.856;2023-08-06T09:42:56;16.60;99.90
6333;DHT22;3199;49.102;8.856;2023-08-06T09:45:22;16.60;99.90
6333;DHT22;3199;49.102;8.856;2023-08-06T09:47:49;16.60;99.90
6333;DHT22;3199;49.102;8.856;2023-08-06T09:50:17;16.60;99.90
6333;DHT22;3199;49.102;8.856;2023-08-06T09:52:44;16.60;99.90
6333;DHT22;3199;49.102;8.856;2023-08-06T09:55:12;16.50;99.90
6333;DHT22;3199;49.102;8.856;2023-08-06T09:57:38;16.40;99.90
6333;DHT22;3199;49.102;8.856;2023-08-06T10:00:04;16.40;99.90
6333;DHT22;3199;49.102;8.856;2023-08-06T10:02:32;16.20;99.90
6333;DHT22;3199;49.102;8.856;2023-08-06T10:04:58;16.20;99.90
6333;DHT22;3199;49.102;8.856;2023-08-06T10:07:24;16.30;99.90
6333;DHT22;3199;49.102;8.856;2023-08-06T10:09:50;16.30;99.90
6333;DHT22;3199;49.102;8.856;2023-08-06T10:12:16;16.30;99.90
6333;DHT22;3199;49.102;8.856;2023-08-06T10:14:44;16.30;99.90
6333;DHT22;3199;49.102;8.856;2023-08-06T10:17:10;16.10;99.90
6333;DHT22;3199;49.102;8.856;2023-08-06T10:19:36;15.90;99.90
6333;DHT22;3199;49.102;8.856;2023-08-06T10:22:16;15.70;99.90
6333;DHT22;3199;49.102;8.856;2023-08-06T10:24:50;15.50;99.90
6333;DHT22;3199;49.102;8.856;2023-08-06T10:27:29;15.50;99.90
6333;DHT22;3199;49.102;8.856;2023-08-06T10:29:56;15.40;99.90
6333;DHT22;3199;49.102;8.856;2023-08-06T10:32:48;15.40;99.90
6333;DHT22;3199;49.102;8.856;2023-08-06T10:35:44;15.40;99.90
6333;DHT22;3199;49.102;8.856;2023-08-06T10:38:17;15.50;99.90
6333;DHT22;3199;49.102;8.856;2023-08-06T10:41:03;15.40;99.90
6333;DHT22;3199;49.102;8.856;2023-08-06T10:43:33;15.40;99.90
6333;DHT22;3199;49.102;8.856;2023-08-06T10:46:02;15.50;99.90
6333;DHT22;3199;49.102;8.856;2023-08-06T10:48:44;15.50;99.90
6333;DHT22;3199;49.102;8.856;2023-08-06T10:51:12;15.50;99.90
6333;DHT22;3199;49.102;8.856;2023-08-06T10:53:42;15.50;99.90
6333;DHT22;3199;49.102;8.856;2023-08-06T10:56:18;15.50;99.90
6333;DHT22;3199;49.102;8.856;2023-08-06T10:58:45;15.50;99.90
6333;DHT22;3199;49.102;8.856;2023-08-06T11:01:11;15.50;99.90
6333;DHT22;3199;49.102;8.856;2023-08-06T11:03:38;15.40;99.90
6333;DHT22;3199;49.102;8.856;2023-08-06T11:06:04;15.40;99.90
6333;DHT22;3199;49.102;8.856;2023-08-06T11:08:34;15.30;99.90
6333;DHT22;3199;49.102;8.856;2023-08-06T11:11:11;15.20;99.90
6333;DHT22;3199;49.102;8.856;2023-08-06T11:13:38;15.10;99.90
6333;DHT22;3199;49.102;8.856;2023-08-06T11:16:05;15.10;99.90
6333;DHT22;3199;49.102;8.856;2023-08-06T11:18:32;15.10;99.90
6333;DHT22;3199;49.102;8.856;2023-08-06T11:21:01;15.10;99.90
6333;DHT22;3199;49.102;8.856;2023-08-06T11:23:29;15.10;99.90
6333;DHT22;3199;49.102;8.856;2023-08-06T11:25:56;15.00;99.90
6333;DHT22;3199;49.102;8.856;2023-08-06T11:28:22;15.00;99.90
6333;DHT22;3199;49.102;8.856;2023-08-06T11:30:48;15.00;99.90
6333;DHT22;3199;49.102;8.856;2023-08-06T11:33:14;14.90;99.90
6333;DHT22;3199;49.102;8.856;2023-08-06T11:35:40;14.90;99.90
6333;DHT22;3199;49.102;8.856;2023-08-06T11:38:06;14.80;99.90
6333;DHT22;3199;49.102;8.856;2023-08-06T11:40:32;14.80;99.90
6333;DHT22;3199;49.102;8.856;2023-08-06T11:42:58;14.80;99.90
6333;DHT22;3199;49.102;8.856;2023-08-06T11:45:24;14.80;99.90
6333;DHT22;3199;49.102;8.856;2023-08-06T11:47:51;14.60;99.90
6333;DHT22;3199;49.102;8.856;2023-08-06T11:50:25;14.70;99.90
6333;DHT22;3199;49.102;8.856;2023-08-06T11:52:59;14.70;99.90
6333;DHT22;3199;49.102;8.856;2023-08-06T11:55:25;14.70;99.90
6333;DHT22;3199;49.102;8.856;2023-08-06T11:57:51;14.70;99.90
6333;DHT22;3199;49.102;8.856;2023-08-06T12:00:17;14.70;99.90
6333;DHT22;3199;49.102;8.856;2023-08-06T12:02:46;14.70;99.90
6333;DHT22;3199;49.102;8.856;2023-08-06T12:05:16;14.80;99.90
6333;DHT22;3199;49.102;8.856;2023-08-06T12:07:44;14.80;99.90
6333;DHT22;3199;49.102;8.856;2023-08-06T12:10:11;14.70;99.90
6333;DHT22;3199;49.102;8.856;2023-08-06T12:12:37;14.80;99.90
6333;DHT22;3199;49.102;8.856;2023-08-06T12:15:04;14.80;99.90
6333;DHT22;3199;49.102;8.856;2023-08-06T12:17:31;14.80;99.90
6333;DHT22;3199;49.102;8.856;2023-08-06T12:19:57;14.90;99.90
6333;DHT22;3199;49.102;8.856;2023-08-06T12:22:23;14.90;99.90
6333;DHT22;3199;49.102;8.856;2023-08-06T12:24:48;15.00;99.90
6333;DHT22;3199;49.102;8.856;2023-08-06T12:27:14;14.90;99.90
6333;DHT22;3199;49.102;8.856;2023-08-06T12:29:45;14.90;99.90
6333;DHT22;3199;49.102;8.856;2023-08-06T12:32:11;14.90;99.90
6333;DHT22;3199;49.102;8.856;2023-08-06T12:34:38;14.90;99.90
6333;DHT22;3199;49.102;8.856;2023-08-06T12:37:05;15.00;99.90
6333;DHT22;3199;49.102;8.856;2023-08-06T12:39:30;15.00;99.90
6333;DHT22;3199;49.102;8.856;2023-08-06T12:41:56;15.00;99.90
6333;DHT22;3199;49.102;8.856;2023-08-06T12:44:23;15.00;99.90
6333;DHT22;3199;49.102;8.856;2023-08-06T12:46:50;15.20;99.90
6333;DHT22;3199;49.102;8.856;2023-08-06T12:49:16;15.40;99.90
6333;DHT22;3199;49.102;8.856;2023-08-06T12:51:42;15.50;99.90
6333;DHT22;3199;49.102;8.856;2023-08-06T12:54:07;15.40;99.90
6333;DHT22;3199;49.102;8.856;2023-08-06T12:56:34;15.50;99.90
6333;DHT22;3199;49.102;8.856;2023-08-06T12:59:00;15.50;99.90
6333;DHT22;3199;49.102;8.856;2023-08-06T13:01:25;15.50;99.90
6333;DHT22;3199;49.102;8.856;2023-08-06T13:03:51;15.40;99.90
6333;DHT22;3199;49.102;8.856;2023-08-06T13:06:16;15.30;99.90
6333;DHT22;3199;49.102;8.856;2023-08-06T13:08:42;15.20;99.90
6333;DHT22;3199;49.102;8.856;2023-08-06T13:11:07;15.30;99.90
6333;DHT22;3199;49.102;8.856;2023-08-06T13:13:33;15.30;99.90
6333;DHT22;3199;49.102;8.856;2023-08-06T13:15:58;15.40;99.90
6333;DHT22;3199;49.102;8.856;2023-08-06T13:18:24;15.50;99.90
6333;DHT22;3199;49.102;8.856;2023-08-06T13:20:53;15.70;99.90
6333;DHT22;3199;49.102;8.856;2023-08-06T13:23:19;15.70;99.90
6333;DHT22;3199;49.102;8.856;2023-08-06T13:25:45;15.90;99.90
6333;DHT22;3199;49.102;8.856;2023-08-06T13:28:10;16.00;99.90
6333;DHT22;3199;49.102;8.856;2023-08-06T13:30:36;15.90;99.90
6333;DHT22;3199;49.102;8.856;2023-08-06T13:33:10;16.00;99.90
6333;DHT22;3199;49.102;8.856;2023-08-06T13:35:36;15.90;99.90
6333;DHT22;3199;49.102;8.856;2023-08-06T13:38:01;15.60;99.90
6333;DHT22;3199;49.102;8.856;2023-08-06T13:40:28;15.60;99.90
6333;DHT22;3199;49.102;8.856;2023-08-06T13:42:55;15.60;99.90
6333;DHT22;3199;49.102;8.856;2023-08-06T13:45:21;15.50;99.90
6333;DHT22;3199;49.102;8.856;2023-08-06T13:47:46;15.40;99.90
6333;DHT22;3199;49.102;8.856;2023-08-06T13:50:12;15.40;99.90
6333;DHT22;3199;49.102;8.856;2023-08-06T13:52:38;15.30;99.90
6333;DHT22;3199;49.102;8.856;2023-08-06T13:55:05;15.30;99.90
6333;DHT22;3199;49.102;8.856;2023-08-06T13:57:31;15.20;99.90
6333;DHT22;3199;49.102;8.856;2023-08-06T13:59:56;15.20;99.90
6333;DHT22;3199;49.102;8.856;2023-08-06T14:02:22;15.20;99.90
6333;DHT22;3199;49.102;8.856;2023-08-06T14:04:48;15.20;99.90
6333;DHT22;3199;49.102;8.856;2023-08-06T14:07:13;15.20;99.90
6333;DHT22;3199;49.102;8.856;2023-08-06T14:09:39;15.20;99.90
6333;DHT22;3199;49.102;8.856;2023-08-06T14:12:05;15.10;99.90
6333;DHT22;3199;49.102;8.856;2023-08-06T14:14:31;15.10;99.90
6333;DHT22;3199;49.102;8.856;2023-08-06T14:16:57;15.10;99.90
6333;DHT22;3199;49.102;8.856;2023-08-06T14:19:22;15.10;99.90
6333;DHT22;3199;49.102;8.856;2023-08-06T14:21:48;15.30;99.90
6333;DHT22;3199;49.102;8.856;2023-08-06T14:24:13;15.70;99.90
6333;DHT22;3199;49.102;8.856;2023-08-06T14:26:39;15.80;99.90
6333;DHT22;3199;49.102;8.856;2023-08-06T14:29:04;15.90;99.90
6333;DHT22;3199;49.102;8.856;2023-08-06T14:31:30;16.00;99.90
6333;DHT22;3199;49.102;8.856;2023-08-06T14:33:56;16.00;99.90
6333;DHT22;3199;49.102;8.856;2023-08-06T14:36:21;16.10;99.90
6333;DHT22;3199;49.102;8.856;2023-08-06T14:38:47;16.20;99.90
6333;DHT22;3199;49.102;8.856;2023-08-06T14:41:13;16.20;99.90
6333;DHT22;3199;49.102;8.856;2023-08-06T14:43:38;16.20;99.90
6333;DHT22;3199;49.102;8.856;2023-08-06T14:46:04;16.20;99.90
6333;DHT22;3199;49.102;8.856;2023-08-06T14:48:30;16.10;99.90
6333;DHT22;3199;49.102;8.856;2023-08-06T14:50:56;15.80;99.90
6333;DHT22;3199;49.102;8.856;2023-08-06T14:53:22;15.90;99.90
6333;DHT22;3199;49.102;8.856;2023-08-06T14:55:47;15.90;99.90
6333;DHT22;3199;49.102;8.856;2023-08-06T14:58:13;16.00;99.90
6333;DHT22;3199;49.102;8.856;2023-08-06T15:00:38;16.30;99.90
6333;DHT22;3199;49.102;8.856;2023-08-06T15:03:04;16.50;99.90
6333;DHT22;3199;49.102;8.856;2023-08-06T15:05:29;16.70;99.90
6333;DHT22;3199;49.102;8.856;2023-08-06T15:07:55;17.00;99.90
6333;DHT22;3199;49.102;8.856;2023-08-06T15:10:20;17.10;99.90
6333;DHT22;3199;49.102;8.856;2023-08-06T15:12:46;17.00;99.90
6333;DHT22;3199;49.102;8.856;2023-08-06T15:15:12;16.70;99.90
6333;DHT22;3199;49.102;8.856;2023-08-06T15:17:37;16.50;99.90
6333;DHT22;3199;49.102;8.856;2023-08-06T15:20:03;16.40;99.90
6333;DHT22;3199;49.102;8.856;2023-08-06T15:22:29;16.20;99.90
6333;DHT22;3199;49.102;8.856;2023-08-06T15:25:01;16.10;99.90
6333;DHT22;3199;49.102;8.856;2023-08-06T15:27:27;16.10;99.90
6333;DHT22;3199;49.102;8.856;2023-08-06T15:29:53;16.20;99.90
6333;DHT22;3199;49.102;8.856;2023-08-06T15:32:18;16.30;99.90
6333;DHT22;3199;49.102;8.856;2023-08-06T15:34:44;16.40;99.90
6333;DHT22;3199;49.102;8.856;2023-08-06T15:37:09;16.70;99.90
6333;DHT22;3199;49.102;8.856;2023-08-06T15:39:35;16.80;99.90
6333;DHT22;3199;49.102;8.856;2023-08-06T15:42:01;16.90;99.90
6333;DHT22;3199;49.102;8.856;2023-08-06T15:44:27;17.10;99.90
6333;DHT22;3199;49.102;8.856;2023-08-06T15:46:53;17.20;99.90
6333;DHT22;3199;49.102;8.856;2023-08-06T15:49:19;16.80;99.90
6333;DHT22;3199;49.102;8.856;2023-08-06T15:51:44;16.50;99.90
6333;DHT22;3199;49.102;8.856;2023-08-06T15:54:10;16.30;99.90
6333;DHT22;3199;49.102;8.856;2023-08-06T15:56:35;16.20;99.90
6333;DHT22;3199;49.102;8.856;2023-08-06T15:59:26;16.10;99.90
6333;DHT22;3199;49.102;8.856;2023-08-06T16:01:53;15.90;99.90
6333;DHT22;3199;49.102;8.856;2023-08-06T16:04:18;15.70;99.90